Time;durP1;ratioP1;P1;durP2;ratioP2;P2;SDS_P1;SDS_P2;PMS_P1;PMS_P2;Temp;Humidity;BMP_temperature;BMP_pressure;BME280_temperature;BME280_humidity;BME280_pressure;Samples;Min_cycle;Max_cycle;Signal;HPM_P1;HPM_P2
2021/11/09 00:25:49;;;;;;;;;;;;;;;5.41;77.69;100803.72;1086882;54;19933;-79
2021/11/09 00:26:58;;;;;;;18.33;9.32;;;;;;;5.41;77.60;100801.91;1088586;54;19974;-81
2021/11/09 00:28:03;;;;;;;19.75;9.95;;;;;;;5.38;77.47;100814.50;1094589;39;20591;-80
2021/11/09 00:29:05;;;;;;;16.90;9.60;;;;;;;5.35;77.60;100809.38;1088460;54;20041;-82
2021/11/09 00:30:12;;;;;;;16.50;9.43;;;;;;;5.34;77.80;100813.00;1088328;54;20027;-80
2021/11/09 00:53:17;;;;;;;;;;;;;;;5.66;76.61;100826.94;1087659;54;20021;-79
2021/11/09 01:16:42;;;;;;;11.95;5.97;;;;;;;5.29;76.69;100823.88;1088165;54;20011;-80
2021/11/09 01:17:44;;;;;;;;;;;;;;;5.25;77.00;100827.63;1088650;54;20030;-80
2021/11/09 01:18:51;;;;;;;13.20;6.47;;;;;;;5.28;76.83;100827.47;1088596;54;19926;-80
2021/11/09 01:19:53;;;;;;;11.77;6.95;;;;;;;5.29;76.66;100826.53;1088361;54;20047;-82
2021/11/09 01:20:59;;;;;;;9.25;6.13;;;;;;;5.32;76.43;100826.31;1088498;54;20010;-80
2021/11/09 01:22:02;;;;;;;8.52;5.88;;;;;;;5.36;76.63;100827.84;1088423;54;20232;-79
2021/11/09 01:23:06;;;;;;;9.85;6.78;;;;;;;5.34;76.79;100820.94;1088540;54;20014;-80
2021/11/09 01:24:10;;;;;;;9.52;7.05;;;;;;;5.21;77.13;100834.06;1088488;54;20208;-81
2021/11/09 01:25:36;;;;;;;17.73;8.70;;;;;;;5.11;78.00;100816.03;1088544;54;20041;-81
2021/11/09 01:26:39;;;;;;;13.35;7.57;;;;;;;5.13;77.68;100819.47;1088542;54;20047;-79
2021/11/09 01:47:03;;;;;;;11.98;5.72;;;;;;;5.38;76.93;100814.50;1074086;54;20158;-79
2021/11/09 02:02:19;;;;;;;11.45;6.40;;;;;;;4.99;77.36;100836.19;1081552;54;20113;-80
2021/11/09 02:03:23;;;;;;;11.13;7.15;;;;;;;5.01;77.33;100830.78;1088550;54;20024;-80
2021/11/09 02:04:47;;;;;;;10.90;6.93;;;;;;;4.96;77.52;100835.50;1088476;54;20026;-79
2021/11/09 02:18:43;;;;;;;11.15;5.35;;;;;;;4.99;77.29;100838.81;1091133;39;20969;-80
2021/11/09 02:48:07;;;;;;;16.92;9.30;;;;;;;4.09;78.95;100856.22;1087389;54;20034;-78
2021/11/09 02:49:14;;;;;;;15.10;8.23;;;;;;;3.99;79.40;100857.66;1087695;54;20034;-77
2021/11/09 02:50:18;;;;;;;14.98;9.05;;;;;;;3.90;79.73;100854.56;1087721;54;20065;-76
2021/11/09 02:51:29;;;;;;;15.70;8.73;;;;;;;3.89;79.92;100858.13;1089425;31;20828;-78
2021/11/09 02:52:32;;;;;;;13.90;8.05;;;;;;;3.86;79.82;100862.75;1087643;54;20039;-77
2021/11/09 02:53:39;;;;;;;15.15;8.50;;;;;;;3.84;79.95;100854.91;1087669;54;20030;-78
2021/11/09 02:54:44;;;;;;;15.85;8.13;;;;;;;3.84;79.92;100851.38;1087743;54;20063;-77
2021/11/09 02:55:52;;;;;;;11.93;7.55;;;;;;;4.01;79.47;100856.66;1087694;54;20710;-76
2021/11/09 02:57:00;;;;;;;12.57;6.80;;;;;;;4.19;78.89;100862.72;1087747;54;20053;-78
2021/11/09 02:58:09;;;;;;;11.48;7.50;;;;;;;4.16;79.00;100862.03;1087682;54;20806;-79
2021/11/09 02:59:24;;;;;;;10.70;6.88;;;;;;;4.04;79.03;100856.47;1087628;54;20038;-77
2021/11/09 03:00:28;;;;;;;16.60;8.38;;;;;;;3.81;79.61;100857.69;1087673;54;20097;-77
2021/11/09 03:01:35;;;;;;;12.02;8.15;;;;;;;3.74;80.12;100856.31;1087710;54;20031;-78
2021/11/09 03:02:42;;;;;;;12.80;8.82;;;;;;;3.74;80.03;100858.97;1087680;54;20731;-77
2021/11/09 03:03:55;;;;;;;14.68;8.07;;;;;;;3.75;80.04;100865.97;1087627;54;20058;-77
2021/11/09 03:05:05;;;;;;;12.85;7.70;;;;;;;3.76;79.97;100865.03;1087582;54;20056;-77
2021/11/09 03:06:22;;;;;;;8.50;5.40;;;;;;;3.77;79.77;100868.53;1087676;54;20031;-77
2021/11/09 03:07:31;;;;;;;12.75;7.82;;;;;;;3.82;79.63;100862.06;1087618;54;20038;-77
2021/11/09 03:08:37;;;;;;;11.68;7.30;;;;;;;3.75;79.58;100869.44;1088534;46;20037;-77
2021/11/09 03:09:55;;;;;;;15.20;8.30;;;;;;;3.67;80.10;100866.34;1088275;39;20715;-77
2021/11/09 03:11:00;;;;;;;11.30;7.10;;;;;;;3.67;80.18;100865.53;1087821;54;20041;-77
2021/11/09 03:12:04;;;;;;;15.13;7.75;;;;;;;3.70;79.78;100867.97;1087635;54;20034;-77
2021/11/09 03:13:09;;;;;;;14.38;7.65;;;;;;;3.73;79.81;100867.84;1087671;54;20030;-77
2021/11/09 03:14:11;;;;;;;11.40;7.20;;;;;;;3.83;79.52;100866.41;1087677;54;20034;-77
2021/11/09 03:15:19;;;;;;;12.15;7.20;;;;;;;3.90;79.51;100870.44;1089159;39;20705;-78
2021/11/09 03:16:21;;;;;;;13.60;7.88;;;;;;;3.88;79.42;100860.88;1089624;39;20658;-77
2021/11/09 03:17:35;;;;;;;11.10;6.85;;;;;;;3.83;79.61;100861.13;1087676;54;20034;-77
2021/11/09 03:18:42;;;;;;;13.18;8.65;;;;;;;3.81;79.77;100870.94;1087739;54;20033;-78
2021/11/09 03:19:52;;;;;;;11.82;7.55;;;;;;;3.79;79.50;100866.66;1087702;54;20054;-77
2021/11/09 03:20:58;;;;;;;12.57;7.13;;;;;;;3.75;79.92;100871.25;1087686;54;20058;-77
2021/11/09 03:40:13;;;;;;;15.73;8.27;;;;;;;3.50;80.51;100855.81;1087704;54;20034;-78
2021/11/09 03:45:17;;;;;;;11.75;7.78;;;;;;;3.41;80.83;100863.28;1087618;54;20031;-77
2021/11/09 03:46:54;;;;;;;15.98;8.60;;;;;;;3.51;80.87;100863.66;1088020;54;20042;-77
2021/11/09 03:48:03;;;;;;;14.23;7.55;;;;;;;3.62;80.07;100862.25;1087930;54;20090;-77
2021/11/09 03:49:08;;;;;;;13.52;7.80;;;;;;;3.53;80.26;100860.94;1087988;54;20041;-79
2021/11/09 03:50:17;;;;;;;14.27;9.27;;;;;;;3.43;81.03;100863.19;1088011;54;20037;-77
2021/11/09 03:51:19;;;;;;;15.30;9.05;;;;;;;3.42;80.95;100859.72;1087996;54;20102;-77
2021/11/09 03:52:27;;;;;;;18.55;9.05;;;;;;;3.52;81.01;100860.06;1087992;54;20139;-77
2021/11/09 03:53:30;;;;;;;14.98;8.05;;;;;;;3.60;80.63;100864.97;1087917;54;20042;-77
2021/11/09 03:54:34;;;;;;;15.82;8.85;;;;;;;3.62;80.42;100864.88;1090327;39;21022;-78
2021/11/09 03:55:41;;;;;;;18.92;8.32;;;;;;;3.58;80.61;100867.72;1087903;54;20038;-78
2021/11/09 03:56:50;;;;;;;16.38;9.45;;;;;;;3.51;80.72;100868.94;1087854;54;20034;-78
2021/11/09 03:58:01;;;;;;;17.50;9.73;;;;;;;3.39;81.25;100869.59;1087900;54;20036;-78
2021/11/09 03:59:11;;;;;;;17.30;9.52;;;;;;;3.27;81.74;100871.03;1087846;54;20030;-77
2021/11/09 04:00:18;;;;;;;18.00;10.02;;;;;;;3.24;81.67;100865.94;1087988;54;20078;-77
2021/11/09 04:01:26;;;;;;;16.73;9.55;;;;;;;3.22;81.82;100860.72;1091447;39;20682;-78
2021/11/09 04:02:31;;;;;;;15.60;9.07;;;;;;;3.19;81.87;100870.59;1087914;54;20030;-77
2021/11/09 04:03:47;;;;;;;19.55;9.65;;;;;;;3.12;82.01;100865.63;1087969;54;20031;-78
2021/11/09 04:04:51;;;;;;;13.68;8.90;;;;;;;3.20;81.90;100865.25;1090418;39;20700;-78
2021/11/09 04:06:08;;;;;;;14.40;9.13;;;;;;;3.25;81.84;100863.19;1088006;54;20042;-77
2021/11/09 04:07:12;;;;;;;17.35;10.20;;;;;;;3.21;82.01;100872.22;1087969;54;20046;-78
2021/11/09 04:08:29;;;;;;;17.58;9.48;;;;;;;3.23;81.67;100873.00;1088047;54;20950;-77
2021/11/09 04:09:38;;;;;;;17.77;9.77;;;;;;;3.19;81.84;100868.81;1087866;54;20038;-76
2021/11/09 04:10:49;;;;;;;16.98;11.20;;;;;;;3.16;82.25;100868.13;1087962;54;20034;-77
2021/11/09 04:11:55;;;;;;;;;;;;;;;3.10;82.79;100874.56;1087948;54;20038;-77
2021/11/09 04:13:18;;;;;;;16.83;9.30;;;;;;;3.11;82.44;100876.28;1087963;54;19942;-77
2021/11/09 04:14:28;;;;;;;16.00;9.55;;;;;;;3.14;82.06;100865.53;1087813;54;20927;-76
2021/11/09 04:15:49;;;;;;;15.55;9.82;;;;;;;3.19;81.89;100879.38;1087963;54;20041;-77
2021/11/09 04:16:57;;;;;;;15.25;9.63;;;;;;;3.21;81.73;100868.72;1087924;54;20031;-78
2021/11/09 04:18:25;;;;;;;14.80;9.48;;;;;;;3.16;81.60;100865.47;1087967;54;20034;-77
2021/11/09 04:19:38;;;;;;;14.88;8.80;;;;;;;3.01;82.29;100865.28;1087893;54;20041;-78
2021/11/09 04:20:51;;;;;;;14.93;9.60;;;;;;;2.93;82.38;100867.47;1087855;54;20038;-77
2021/11/09 04:26:03;;;;;;;13.38;7.88;;;;;;;2.74;82.64;100867.50;1090330;39;20741;-78
2021/11/09 04:27:20;;;;;;;15.80;7.15;;;;;;;2.76;82.59;100876.19;1087555;54;20038;-79
2021/11/09 04:28:35;;;;;;;14.30;7.53;;;;;;;2.72;82.87;100872.00;1087559;54;20030;-79
2021/11/09 04:29:56;;;;;;;17.50;6.95;;;;;;;2.66;82.99;100873.16;1087719;54;20796;-77
2021/11/09 04:31:12;;;;;;;11.95;7.05;;;;;;;2.69;83.05;100875.66;1087680;54;20055;-78
2021/11/09 04:32:26;;;;;;;9.45;6.10;;;;;;;2.73;83.00;100873.72;1087657;54;20060;-78
2021/11/09 05:01:18;;;;;;;18.10;8.52;;;;;;;3.40;80.63;100884.53;1087736;54;20035;-77
2021/11/09 05:08:54;;;;;;;18.23;9.77;;;;;;;3.46;80.21;100891.25;1087565;54;20173;-77
2021/11/09 05:10:01;;;;;;;22.48;8.70;;;;;;;3.43;80.31;100879.94;1088282;46;20034;-76
2021/11/09 05:11:02;;;;;;;16.60;8.82;;;;;;;3.47;80.34;100883.28;1087990;31;20862;-76
2021/11/09 05:12:07;;;;;;;16.45;8.30;;;;;;;3.48;80.29;100884.09;1088320;46;20034;-75
2021/11/09 05:13:09;;;;;;;15.95;8.63;;;;;;;3.46;80.26;100880.69;1087520;54;20037;-74
2021/11/09 05:14:15;;;;;;;16.83;9.10;;;;;;;3.42;80.20;100880.00;1087602;54;20030;-77
2021/11/09 05:15:16;;;;;;;19.15;10.50;;;;;;;3.41;80.39;100880.91;1088120;46;20891;-78
2021/11/09 05:16:21;;;;;;;17.88;10.10;;;;;;;3.42;80.33;100883.50;1087519;54;20042;-76
2021/11/09 05:17:22;;;;;;;16.67;9.10;;;;;;;3.44;80.18;100878.13;1087823;39;20733;-77
2021/11/09 05:18:28;;;;;;;15.80;9.77;;;;;;;3.46;80.45;100878.03;1087544;54;20035;-76
2021/11/09 05:19:30;;;;;;;16.45;8.52;;;;;;;3.46;80.22;100885.97;1087442;54;20034;-76
2021/11/09 05:20:34;;;;;;;15.38;7.97;;;;;;;3.52;80.14;100885.69;1087451;54;20034;-76
2021/11/09 05:21:39;;;;;;;16.05;7.80;;;;;;;3.51;80.05;100890.09;1087494;54;20041;-76
2021/11/09 05:22:40;;;;;;;19.23;8.88;;;;;;;3.53;80.00;100888.22;1088326;39;20781;-76
2021/11/09 05:23:45;;;;;;;17.25;8.23;;;;;;;3.53;79.85;100887.38;1087468;54;20030;-77
2021/11/09 05:24:51;;;;;;;16.42;9.20;;;;;;;3.50;79.81;100898.13;1087512;54;20022;-76
2021/11/09 05:25:55;;;;;;;18.70;8.60;;;;;;;3.48;80.10;100889.41;1087457;54;20086;-77
2021/11/09 05:26:56;;;;;;;17.58;8.55;;;;;;;3.47;80.11;100891.19;1087496;54;20117;-76
2021/11/09 05:28:01;;;;;;;16.23;8.10;;;;;;;3.47;80.16;100898.25;1087558;54;20046;-76
2021/11/09 05:29:03;;;;;;;22.80;8.63;;;;;;;3.43;80.07;100901.09;1087438;54;20060;-77
2021/11/09 05:30:08;;;;;;;16.20;8.85;;;;;;;3.43;80.12;100898.44;1087861;31;20837;-76
2021/11/09 05:31:10;;;;;;;15.30;8.20;;;;;;;3.41;80.20;100897.66;1090326;39;20756;-77
2021/11/09 05:32:14;;;;;;;19.33;8.27;;;;;;;3.41;80.25;100894.13;1087730;54;20026;-77
2021/11/09 05:33:17;;;;;;;14.60;7.05;;;;;;;3.44;80.18;100899.28;1093976;31;20773;-77
2021/11/09 05:34:23;;;;;;;15.82;8.18;;;;;;;3.43;80.06;100900.22;1087860;54;20033;-76
2021/11/09 05:35:24;;;;;;;13.43;7.47;;;;;;;3.41;80.27;100904.72;1087739;54;20034;-77
2021/11/09 05:36:32;;;;;;;13.63;8.27;;;;;;;3.35;80.11;100905.03;1087709;54;20031;-76
2021/11/09 05:37:38;;;;;;;14.10;7.95;;;;;;;3.35;80.26;100903.25;1088019;54;20026;-76
2021/11/09 05:38:50;;;;;;;14.00;8.07;;;;;;;3.33;80.22;100901.59;1088271;54;20042;-76
2021/11/09 05:39:56;;;;;;;14.50;7.15;;;;;;;3.33;80.57;100906.88;1093253;46;20030;-76
2021/11/09 05:41:07;;;;;;;15.93;8.32;;;;;;;3.31;80.25;100903.50;1088288;54;20030;-76
2021/11/09 05:42:09;;;;;;;19.65;8.52;;;;;;;3.32;80.26;100905.16;1087925;54;20034;-76
2021/11/09 05:43:13;;;;;;;17.35;8.43;;;;;;;3.29;80.23;100911.47;1087864;54;20093;-76
2021/11/09 05:44:15;;;;;;;13.60;7.25;;;;;;;3.29;80.31;100906.19;1087856;54;20061;-77
2021/11/09 05:45:19;;;;;;;16.80;7.90;;;;;;;3.28;80.60;100909.75;1088082;46;20041;-77
2021/11/09 05:46:23;;;;;;;12.82;7.10;;;;;;;3.29;80.46;100916.75;1087919;54;20086;-76
2021/11/09 05:47:25;;;;;;;14.60;8.40;;;;;;;3.27;80.34;100906.28;1087847;54;20061;-76
2021/11/09 05:48:29;;;;;;;15.05;8.13;;;;;;;3.28;80.35;100904.47;1087652;54;20041;-77
2021/11/09 05:49:32;;;;;;;26.52;8.80;;;;;;;3.18;80.29;100914.66;1087890;54;20038;-76
2021/11/09 05:50:36;;;;;;;13.65;7.70;;;;;;;3.22;80.50;100910.91;1087864;54;20090;-76
2021/11/09 05:51:37;;;;;;;15.65;7.88;;;;;;;3.25;80.50;100904.66;1087881;54;20045;-76
2021/11/09 05:52:42;;;;;;;17.15;8.05;;;;;;;3.27;80.41;100915.97;1087929;54;20034;-76
2021/11/09 05:53:43;;;;;;;12.05;6.65;;;;;;;3.32;80.29;100916.63;1087770;54;20038;-77
2021/11/09 05:54:49;;;;;;;15.55;8.38;;;;;;;3.34;80.22;100919.19;1087887;54;20042;-76
2021/11/09 05:55:53;;;;;;;12.73;7.13;;;;;;;3.33;80.11;100918.34;1087839;54;20035;-76
2021/11/09 05:56:57;;;;;;;15.20;7.45;;;;;;;3.32;79.91;100916.63;1087816;39;20664;-77
2021/11/09 05:57:59;;;;;;;13.48;7.78;;;;;;;3.32;79.90;100913.09;1087869;54;20035;-76
2021/11/09 05:59:03;;;;;;;15.93;8.77;;;;;;;3.30;79.91;100915.00;1087908;54;20037;-76
2021/11/09 06:00:07;;;;;;;18.02;9.90;;;;;;;3.31;80.00;100914.91;1087807;54;20098;-75
2021/11/09 06:01:12;;;;;;;17.80;9.27;;;;;;;3.33;79.77;100917.47;1087895;54;20107;-76
2021/11/09 06:02:14;;;;;;;15.52;8.43;;;;;;;3.34;79.75;100927.97;1087764;54;20030;-77
2021/11/09 06:03:22;;;;;;;17.05;8.65;;;;;;;3.33;79.76;100922.75;1087703;54;20030;-76
2021/11/09 06:04:25;;;;;;;17.63;9.07;;;;;;;3.33;79.89;100923.63;1087876;54;20046;-76
2021/11/09 06:05:30;;;;;;;17.00;9.52;;;;;;;3.32;79.69;100921.03;1087808;54;20026;-76
2021/11/09 06:06:31;;;;;;;19.35;9.00;;;;;;;3.30;79.58;100920.28;1087891;54;20038;-76
2021/11/09 06:07:35;;;;;;;19.20;10.32;;;;;;;3.27;79.49;100916.84;1087771;54;20030;-76
2021/11/09 06:08:37;;;;;;;16.85;9.18;;;;;;;3.22;79.71;100926.78;1087751;54;20400;-76
2021/11/09 06:09:42;;;;;;;22.42;9.52;;;;;;;3.24;79.92;100924.91;1087875;54;20172;-77
2021/11/09 06:10:43;;;;;;;20.27;9.50;;;;;;;3.21;79.82;100925.06;1087814;54;20335;-76
2021/11/09 06:11:50;;;;;;;20.77;9.15;;;;;;;3.22;79.68;100920.66;1087845;54;20035;-76
2021/11/09 06:12:52;;;;;;;17.17;9.00;;;;;;;3.24;79.64;100930.19;1087873;54;20041;-76
2021/11/09 06:13:58;;;;;;;20.50;9.57;;;;;;;3.23;79.62;100938.22;1087691;54;20090;-76
2021/11/09 06:15:00;;;;;;;19.40;10.07;;;;;;;3.21;79.59;100934.78;1087910;47;20055;-75
2021/11/09 06:16:04;;;;;;;18.33;10.43;;;;;;;3.20;79.67;100928.66;1088396;46;20037;-75
2021/11/09 06:17:05;;;;;;;17.00;9.13;;;;;;;3.18;79.51;100929.66;1089944;39;20444;-77
2021/11/09 06:18:10;;;;;;;17.63;8.60;;;;;;;3.18;79.82;100934.94;1087893;54;20038;-77
2021/11/09 06:19:12;;;;;;;18.77;9.65;;;;;;;3.12;79.60;100939.59;1087894;54;20035;-76
2021/11/09 06:20:16;;;;;;;22.17;9.73;;;;;;;3.15;79.64;100935.09;1088188;39;20751;-76
2021/11/09 06:21:18;;;;;;;19.25;8.23;;;;;;;3.16;79.55;100936.81;1087863;54;20037;-76
2021/11/09 06:22:22;;;;;;;16.85;8.50;;;;;;;3.11;79.81;100942.31;1090542;39;20634;-77
2021/11/09 06:23:24;;;;;;;15.95;9.02;;;;;;;3.13;79.65;100929.88;1087820;54;20039;-75
2021/11/09 06:24:29;;;;;;;17.83;9.70;;;;;;;3.08;79.29;100943.31;1087788;54;20055;-76
2021/11/09 06:25:34;;;;;;;14.52;7.93;;;;;;;3.12;79.53;100946.66;1087908;46;20035;-76
2021/11/09 06:26:36;;;;;;;15.18;8.32;;;;;;;3.12;79.53;100941.38;1087777;54;20061;-76
2021/11/09 06:27:43;;;;;;;19.88;8.90;;;;;;;3.05;79.13;100939.97;1087783;54;20064;-76
2021/11/09 06:28:45;;;;;;;17.85;8.63;;;;;;;3.05;79.41;100945.25;1087723;54;20030;-76
2021/11/09 06:29:49;;;;;;;22.58;10.45;;;;;;;2.94;79.39;100943.97;1087724;54;20038;-76
2021/11/09 06:30:52;;;;;;;20.58;10.75;;;;;;;2.87;79.67;100955.78;1088178;39;20227;-75
2021/11/09 06:31:59;;;;;;;24.63;10.50;;;;;;;2.84;79.80;100953.25;1090072;39;20655;-76
2021/11/09 06:33:01;;;;;;;17.48;9.65;;;;;;;2.82;80.01;100955.16;1087698;54;20061;-76
2021/11/09 06:34:06;;;;;;;21.83;10.15;;;;;;;2.79;79.89;100956.13;1087668;54;20759;-77
2021/11/09 06:35:11;;;;;;;21.67;10.52;;;;;;;2.70;80.28;100958.34;1087779;54;20034;-77
2021/11/09 06:36:15;;;;;;;21.25;10.38;;;;;;;2.78;80.10;100957.06;1087698;54;20030;-76
2021/11/09 06:37:17;;;;;;;20.70;10.52;;;;;;;2.85;80.10;100962.91;1087701;54;20034;-76
2021/11/09 06:38:24;;;;;;;22.42;11.00;;;;;;;2.84;80.10;100961.19;1087790;54;20749;-75
2021/11/09 06:39:27;;;;;;;27.77;12.82;;;;;;;2.80;79.93;100970.19;1088707;46;20035;-77
2021/11/09 06:40:32;;;;;;;24.63;11.20;;;;;;;2.87;80.12;100971.63;1087738;54;20022;-76
2021/11/09 06:41:33;;;;;;;23.42;10.95;;;;;;;2.89;80.05;100969.75;1087649;54;20059;-75
2021/11/09 06:42:39;;;;;;;22.70;11.52;;;;;;;2.93;79.86;100970.47;1087733;54;20090;-75
2021/11/09 06:43:46;;;;;;;25.13;12.57;;;;;;;2.92;79.70;100977.56;1087747;54;20034;-76
2021/11/09 06:44:51;;;;;;;27.30;11.30;;;;;;;2.95;79.78;100976.53;1087723;54;20039;-77
2021/11/09 06:45:56;;;;;;;27.73;12.40;;;;;;;2.94;79.76;100975.66;1087698;54;20034;-77
2021/11/09 06:47:00;;;;;;;23.70;11.45;;;;;;;2.97;79.77;100970.25;1092353;39;20660;-75
2021/11/09 06:48:04;;;;;;;23.58;13.43;;;;;;;2.99;79.86;100969.34;1090778;39;20669;-76
2021/11/09 06:49:09;;;;;;;31.15;13.05;;;;;;;2.95;79.60;100979.19;1087258;54;20042;-76
2021/11/09 06:50:11;;;;;;;23.25;12.32;;;;;;;2.94;79.88;100978.31;1087761;54;20046;-75
2021/11/09 06:51:17;;;;;;;23.52;11.65;;;;;;;2.93;79.82;100981.88;1087616;54;20037;-77
2021/11/09 06:52:19;;;;;;;21.55;11.60;;;;;;;2.99;79.82;100977.25;1087772;54;20042;-77
2021/11/09 06:53:27;;;;;;;20.88;10.35;;;;;;;2.99;79.33;100988.66;1088586;39;20630;-77
2021/11/09 06:54:29;;;;;;;19.05;9.80;;;;;;;2.99;79.51;100974.63;1087742;54;20038;-76
2021/11/09 06:55:35;;;;;;;20.63;11.02;;;;;;;2.92;79.34;100981.97;1087753;54;20935;-77
2021/11/09 06:56:39;;;;;;;21.48;10.85;;;;;;;2.92;79.28;100981.97;1087696;54;20030;-76
2021/11/09 06:57:45;;;;;;;20.70;10.50;;;;;;;2.89;79.36;100988.25;1087710;54;20086;-75
2021/11/09 06:58:49;;;;;;;15.98;10.05;;;;;;;2.91;79.20;100983.75;1087778;54;20034;-76
2021/11/09 06:59:53;;;;;;;20.80;10.35;;;;;;;2.89;79.45;100982.09;1087719;54;20034;-76
2021/11/09 07:00:58;;;;;;;16.95;11.40;;;;;;;2.90;79.24;100987.34;1087743;54;20035;-76
2021/11/09 07:01:59;;;;;;;22.85;12.23;;;;;;;2.91;79.54;100986.41;1090386;39;20667;-77
2021/11/09 07:03:04;;;;;;;23.33;12.18;;;;;;;2.90;79.51;100989.97;1089065;46;20035;-75
2021/11/09 07:04:05;;;;;;;27.02;12.55;;;;;;;2.84;79.42;100982.31;1087712;54;20037;-76
2021/11/09 07:05:11;;;;;;;21.30;11.32;;;;;;;2.92;79.51;100987.25;1087803;54;20037;-76
2021/11/09 07:06:15;;;;;;;16.05;10.90;;;;;;;2.93;79.27;100994.25;1087688;54;20065;-76
2021/11/09 07:07:18;;;;;;;22.38;10.13;;;;;;;2.93;79.35;100989.81;1087789;54;20044;-76
2021/11/09 07:08:22;;;;;;;21.08;9.93;;;;;;;2.99;79.24;100987.81;1087840;54;20065;-76
2021/11/09 07:09:23;;;;;;;19.08;10.27;;;;;;;3.00;79.29;100990.38;1087762;54;20058;-77
2021/11/09 07:10:28;;;;;;;20.35;10.45;;;;;;;3.01;79.21;100991.25;1087723;54;20046;-77
2021/11/09 07:11:30;;;;;;;18.85;10.18;;;;;;;3.01;79.20;100983.31;1087759;54;20027;-76
2021/11/09 07:12:34;;;;;;;21.73;10.63;;;;;;;3.05;79.03;101000.72;1087611;54;20802;-75
2021/11/09 07:13:35;;;;;;;18.67;10.40;;;;;;;3.03;79.08;100992.88;1093160;39;20646;-76
2021/11/09 07:14:42;;;;;;;18.40;10.70;;;;;;;3.08;79.13;101003.22;1087736;54;20782;-76
2021/11/09 07:15:44;;;;;;;26.33;10.60;;;;;;;3.11;78.78;101003.94;1087798;54;20035;-76
2021/11/09 07:16:51;;;;;;;21.83;11.75;;;;;;;3.11;78.76;100997.81;1087685;54;20741;-77
2021/11/09 07:17:53;;;;;;;26.92;13.45;;;;;;;3.07;78.98;101004.16;1087663;54;20339;-77
2021/11/09 07:19:01;;;;;;;21.50;12.15;;;;;;;3.08;78.91;101008.53;1088506;46;20044;-77
2021/11/09 07:20:06;;;;;;;23.45;11.68;;;;;;;3.00;78.74;101008.03;1088329;46;20022;-76
2021/11/09 07:21:08;;;;;;;26.85;11.70;;;;;;;3.01;79.05;101007.94;1088384;46;20035;-76
2021/11/09 07:22:12;;;;;;;21.80;10.60;;;;;;;3.06;79.11;101010.38;1087743;54;20031;-76
2021/11/09 07:23:14;;;;;;;22.15;11.93;;;;;;;3.09;78.87;101004.94;1087679;54;20037;-76
2021/11/09 07:24:18;;;;;;;21.70;11.48;;;;;;;3.11;79.02;101013.66;1087732;54;20094;-76
2021/11/09 07:25:20;;;;;;;19.90;10.38;;;;;;;3.12;78.96;101015.34;1087685;54;20037;-77
2021/11/09 07:26:25;;;;;;;23.35;11.82;;;;;;;3.08;78.83;101014.66;1087696;54;20038;-76
2021/11/09 07:27:26;;;;;;;19.20;9.98;;;;;;;3.10;78.80;101014.59;1087637;54;20030;-76
2021/11/09 07:28:30;;;;;;;20.45;11.07;;;;;;;3.15;78.70;101014.38;1093828;39;20300;-76
2021/11/09 07:29:32;;;;;;;27.45;12.90;;;;;;;3.06;78.67;101016.53;1087687;54;20030;-76
2021/11/09 07:30:46;;;;;;;23.42;13.20;;;;;;;3.02;78.61;101012.31;1087636;54;20037;-76
2021/11/09 07:31:53;;;;;;;21.90;12.70;;;;;;;3.07;78.75;101020.00;1087606;54;20041;-77
2021/11/09 07:32:57;;;;;;;23.52;12.80;;;;;;;3.04;78.57;101015.75;1087679;54;20039;-77
2021/11/09 07:34:02;;;;;;;24.20;12.32;;;;;;;3.00;78.92;101011.50;1087641;54;20034;-77
2021/11/09 07:35:04;;;;;;;22.83;12.50;;;;;;;2.98;78.86;101010.72;1087670;54;20035;-76
2021/11/09 07:36:09;;;;;;;27.95;12.77;;;;;;;2.95;79.10;101014.38;1087688;54;20041;-76
2021/11/09 07:37:13;;;;;;;18.60;10.88;;;;;;;3.03;78.95;101014.03;1087689;54;20034;-75
2021/11/09 07:38:16;;;;;;;21.08;12.90;;;;;;;3.07;78.69;101022.66;1087698;54;20027;-76
2021/11/09 07:39:20;;;;;;;20.92;12.70;;;;;;;3.12;78.94;101024.16;1087663;54;20034;-75
2021/11/09 07:40:23;;;;;;;29.92;14.32;;;;;;;3.02;78.70;101025.50;1087562;54;20034;-77
2021/11/09 07:41:27;;;;;;;25.27;15.13;;;;;;;3.01;78.75;101022.97;1087570;54;20041;-76
2021/11/09 07:42:29;;;;;;;30.58;15.25;;;;;;;3.02;79.00;101029.97;1087579;54;20042;-77
2021/11/09 07:43:33;;;;;;;24.40;13.80;;;;;;;3.07;78.96;101022.66;1087665;54;20110;-77
2021/11/09 07:44:35;;;;;;;22.30;13.52;;;;;;;3.09;78.74;101021.66;1087186;54;20045;-76
2021/11/09 07:45:42;;;;;;;26.25;14.40;;;;;;;3.12;78.63;101021.50;1087291;54;20121;-75
2021/11/09 07:46:43;;;;;;;21.10;13.30;;;;;;;3.16;78.77;101027.50;1087576;54;20758;-77
2021/11/09 07:47:49;;;;;;;21.92;12.43;;;;;;;3.21;78.66;101024.66;1087598;54;20034;-75
2021/11/09 07:48:53;;;;;;;21.17;12.00;;;;;;;3.28;78.63;101031.34;1087646;54;20034;-75
2021/11/09 07:49:55;;;;;;;24.90;12.23;;;;;;;3.30;78.20;101026.84;1087192;54;20031;-76
2021/11/09 07:50:59;;;;;;;21.27;12.10;;;;;;;3.33;78.32;101032.00;1087603;54;20041;-76
2021/11/09 07:52:00;;;;;;;19.80;11.90;;;;;;;3.34;78.37;101025.78;1087599;54;20054;-75
2021/11/09 07:53:05;;;;;;;29.15;11.30;;;;;;;3.45;78.20;101027.03;1087643;54;20079;-76
2021/11/09 07:54:08;;;;;;;17.95;11.68;;;;;;;3.41;77.86;101024.53;1087585;54;20030;-76
2021/11/09 07:55:17;;;;;;;21.80;12.38;;;;;;;3.44;78.12;101026.16;1087656;54;20057;-75
2021/11/09 07:56:20;;;;;;;22.13;11.70;;;;;;;3.45;77.77;101022.59;1087682;54;20039;-77
2021/11/09 07:57:28;;;;;;;20.10;11.40;;;;;;;3.45;78.10;101024.41;1087631;54;20034;-75
2021/11/09 07:58:39;;;;;;;22.75;11.60;;;;;;;3.51;77.72;101027.56;1087701;54;20030;-76
2021/11/09 07:59:49;;;;;;;19.13;11.20;;;;;;;3.52;77.82;101018.72;1087570;54;20706;-76
2021/11/09 08:01:06;;;;;;;19.50;10.65;;;;;;;3.55;77.70;101029.16;1087618;54;20030;-75
2021/11/09 08:02:12;;;;;;;17.60;11.13;;;;;;;3.59;77.85;101022.75;1087588;54;20063;-75
2021/11/09 08:03:19;;;;;;;32.65;10.98;;;;;;;3.65;77.66;101020.75;1087639;54;20109;-76
2021/11/09 08:04:26;;;;;;;21.55;11.23;;;;;;;3.61;77.55;101011.25;1087558;54;20034;-76
2021/11/09 08:05:36;;;;;;;16.77;10.10;;;;;;;3.53;77.93;101020.44;1087597;54;20038;-78
2021/11/09 08:06:51;;;;;;;24.92;11.15;;;;;;;3.61;77.82;101022.72;1087598;54;20129;-76
2021/11/09 08:08:00;;;;;;;21.15;11.00;;;;;;;3.67;77.43;101022.41;1087560;54;20045;-76
2021/11/09 08:09:11;;;;;;;21.60;11.60;;;;;;;3.73;77.36;101021.22;1087525;54;20038;-76
2021/11/09 08:10:15;;;;;;;25.92;11.23;;;;;;;3.73;77.38;101022.06;1087575;54;20821;-75
2021/11/09 08:11:16;;;;;;;25.25;11.85;;;;;;;3.77;77.42;101021.94;1087769;39;20646;-76
2021/11/09 15:43:29;;;;;;;4.68;1.55;;;;;;;10.82;50.17;100698.28;1087253;54;20015;-81
2021/11/09 15:44:33;;;;;;;5.53;1.75;;;;;;;10.78;50.19;100697.72;1087639;54;20018;-78
2021/11/09 15:45:39;;;;;;;4.88;2.10;;;;;;;10.82;50.38;100695.63;1087661;54;20042;-81
2021/11/09 15:46:45;;;;;;;3.97;1.70;;;;;;;10.82;50.51;100700.97;1087807;54;20037;-80
2021/11/09 15:47:49;;;;;;;7.68;1.67;;;;;;;10.77;50.43;100699.50;1087757;54;20045;-81
2021/11/09 15:48:57;;;;;;;4.82;1.67;;;;;;;10.76;50.44;100700.53;1087472;54;20034;-79
2021/11/09 15:49:59;;;;;;;4.35;1.30;;;;;;;10.80;50.27;100702.91;1088012;54;20015;-80
2021/11/09 15:51:04;;;;;;;5.57;1.85;;;;;;;10.77;50.35;100712.06;1087870;54;20019;-82
2021/11/09 15:52:11;;;;;;;4.25;1.73;;;;;;;10.72;50.80;100701.75;1087870;54;20022;-82
2021/11/09 15:55:31;;;;;;;5.20;2.05;;;;;;;10.69;50.86;100698.50;1087486;54;20032;-84
2021/11/09 16:00:24;;;;;;;5.75;2.05;;;;;;;10.54;51.18;100706.81;1087861;54;20832;-80
2021/11/09 16:01:28;;;;;;;7.32;1.95;;;;;;;10.56;51.35;100717.38;1087823;54;20055;-78
2021/11/09 16:02:32;;;;;;;4.10;1.67;;;;;;;10.53;51.28;100718.47;1087428;54;20034;-79
2021/11/09 16:03:38;;;;;;;5.75;2.03;;;;;;;10.56;51.26;100714.72;1087315;54;20026;-79
2021/11/09 16:04:42;;;;;;;5.82;2.00;;;;;;;10.60;51.08;100718.81;1087616;54;20030;-80
2021/11/09 16:21:10;;;;;;;5.53;1.73;;;;;;;10.52;51.59;100719.47;1087149;54;20031;-79
2021/11/09 16:22:26;;;;;;;5.60;1.77;;;;;;;10.52;51.74;100724.81;1087829;54;20059;-79
2021/11/09 16:23:34;;;;;;;4.60;1.80;;;;;;;10.53;51.65;100714.97;1087922;54;20050;-81